KADG/ADG METAR and TAF weather

Enter ICAO airport designator
Station Type Date Time Source
KADG METAR 2023/01/30 10:13 UTC NOAA

KADG 301013Z AUTO 36005KT 3SM -SN BR FEW006 OVC010 M04/M05 A3022 RMK AO2 P0000 T10391050


Station Type Date Time Source
KADG Decoded METAR 2023/01/30 10:13 UTC NOAA

ADRIAN LENAWEE COUNTY AIRPORT, MI, United States (KADG) 41-52N 84-05W 241M
Jan 30, 2023 - 05:13 AM EST / 2023.01.30 1013 UTC
Wind: from the N (360 degrees) at 6 MPH (5 KT):0
Visibility: 3 mile(s):0
Sky conditions: overcast
Weather: light snow; mist
Precipitation last hour: A trace
Temperature: 25.0 F (-3.9 C)
Windchill: 17 F (-8 C):1
Dew Point: 23.0 F (-5.0 C)
Relative Humidity: 92%
Pressure (altimeter): 30.22 in. Hg (1023 hPa)
ob: KADG 301013Z AUTO 36005KT 3SM -SN BR FEW006 OVC010 M04/M05 A3022 RMK AO2 P0000 T10391050
cycle: 10

Station Type Date Time Source
KADG TAF UTC NOAA

Error!

Example: see airport list